AIRPORT METAR

METAR FOR LIEA
ADDS - METARS form results

(2035 UTC 06 December 2022)
Data provider http://aviationweather.gov/metar/data/
 
METAR text: LIEA 062020Z 35004KT 9999 0800E BCFG NSC 10/10 Q1013
Conditions at: LIEA (ALGHERO , IT) observed 2020 UTC 06 December 2022
Temperature: 10.0°C (50°F)
Dewpoint: 10.0°C (50°F) [RH = 100%]
Pressure (altimeter): 29.91 inches Hg (1013.0 mb)
Winds: from the N (350 degrees) at 5 MPH (4 knots; 2.1 m/s)
Visibility: 6 or more miles (10+ km)
Ceiling: at least 12,000 feet AGL
Clouds: sky clear below 12,000 feet AGL
Weather: BCFG  (patches of fog)

METAR text: LIEA 061950Z 24001KT 5000 0600NE R20/0400U BCFG FEW002 10/10 Q1013
Conditions at: LIEA (ALGHERO , IT) observed 1950 UTC 06 December 2022
Temperature: 10.0°C (50°F)
Dewpoint: 10.0°C (50°F) [RH = 100%]
Pressure (altimeter): 29.91 inches Hg (1013.0 mb)
Winds: from the WSW (240 degrees) at 1 MPH (1 knots; 0.5 m/s)
Visibility: 3 miles ( 5 km)
Ceiling: at least 12,000 feet AGL
Clouds: few clouds at 200 feet AGL
Weather: BCFG  (patches of fog)

Forecast for: LIEA (ALGHERO , IT)
Text: TAF LIEA 061700Z 0618/0718 VRB05KT CAVOK
Forecast period: 1800 UTC 06 December 2022 to 0800 UTC 07 December 2022
Forecast type: FROM: standard forecast or significant change
Winds: variable direction winds at 6 MPH (5 knots; 2.6 m/s)
Visibility: 6 or more miles (10+ km)
Ceiling: unknown
Clouds: missing
Weather: NSW  (no significant weather)
Text: TEMPO 0621/0706 0800 BCFG BKN008
Forecast period: 2100 UTC 06 December 2022 to 0600 UTC 07 December 2022
Forecast type: TEMPORARY: The following changes expected for less than half the time period
Visibility: 0.50 miles (0.80 km)
Ceiling: 800 feet AGL
Clouds: broken clouds at 800 feet AGL
Weather: BCFG  (patches of fog)
Text: BECMG 0708/0710 26010KT
Forecast period: 0800 to 1800 UTC 07 December 2022
Forecast type: BECOMING: Conditions expected to become as follows by 1000 UTC 07 December 2022
Winds: from the W (260 degrees) at 12 MPH (10 knots; 5.1 m/s)
Visibility: 6 or more miles (10+ km)
Ceiling: unknown
Clouds: missing
Weather: NSW  (no significant weather)

AIRPORT MAP

 RUNWAY INFORMATION
Runway 02 Runway length 9843 ft Runway width 148 ft
Runway elevation 69 ft Runway displaced threshold 0 ft Runway heading 25
Runway 20 Runway length 9843 ft Runway width 148 ft
Runway elevation 87 ft Runway displaced threshold 0 ft Runway heading 205

 AIRPORT FREQUENCIES
Type APP Name APP Frequency 128.55 MHZ
Type ATIS Name ATIS Frequency 125.025 MHZ
Type TWR Name TWR Frequency 118.85 MHZ

 AIRPORT NEAR NAVIGATION AIDS
Type TACAN Name Alghero Frequency 109300 KHZ
Type VORTAC Name Alghero Frequency 113800 KHZ
Type NDB Name Alghero Frequency 382 KHZ



© 2022 - Royal Sky Service, All Right Reserved.